sensor_id;sensor_type;location;lat;lon;timestamp;P1;durP1;ratioP1;P2;durP2;ratioP2
14847;SDS011;7516;43.570;1.448;2023-06-22T00:01:13;3.97;;;2.03;;
14847;SDS011;7516;43.570;1.448;2023-06-22T00:03:40;3.72;;;2.10;;
14847;SDS011;7516;43.570;1.448;2023-06-22T00:06:08;5.25;;;1.90;;
14847;SDS011;7516;43.570;1.448;2023-06-22T00:08:35;2.88;;;1.95;;
14847;SDS011;7516;43.570;1.448;2023-06-22T00:11:02;2.63;;;2.13;;
14847;SDS011;7516;43.570;1.448;2023-06-22T00:13:29;4.95;;;2.00;;
14847;SDS011;7516;43.570;1.448;2023-06-22T00:15:57;3.78;;;2.38;;
14847;SDS011;7516;43.570;1.448;2023-06-22T00:18:25;3.28;;;2.20;;
14847;SDS011;7516;43.570;1.448;2023-06-22T00:20:53;2.40;;;1.90;;
14847;SDS011;7516;43.570;1.448;2023-06-22T00:23:23;4.28;;;2.40;;
14847;SDS011;7516;43.570;1.448;2023-06-22T00:25:50;3.92;;;1.90;;
14847;SDS011;7516;43.570;1.448;2023-06-22T00:28:18;3.10;;;2.15;;
14847;SDS011;7516;43.570;1.448;2023-06-22T00:30:45;4.13;;;2.45;;
14847;SDS011;7516;43.570;1.448;2023-06-22T00:33:13;2.85;;;2.00;;
14847;SDS011;7516;43.570;1.448;2023-06-22T00:35:42;3.88;;;2.30;;
14847;SDS011;7516;43.570;1.448;2023-06-22T00:38:09;3.80;;;2.03;;
14847;SDS011;7516;43.570;1.448;2023-06-22T00:40:37;4.68;;;2.13;;
14847;SDS011;7516;43.570;1.448;2023-06-22T00:43:05;3.58;;;2.50;;
14847;SDS011;7516;43.570;1.448;2023-06-22T00:45:32;3.47;;;2.35;;
14847;SDS011;7516;43.570;1.448;2023-06-22T00:48:00;3.03;;;2.13;;
14847;SDS011;7516;43.570;1.448;2023-06-22T00:50:29;3.40;;;2.45;;
14847;SDS011;7516;43.570;1.448;2023-06-22T00:53:00;5.50;;;2.72;;
14847;SDS011;7516;43.570;1.448;2023-06-22T00:55:33;4.00;;;2.53;;
14847;SDS011;7516;43.570;1.448;2023-06-22T00:58:02;4.55;;;2.72;;
14847;SDS011;7516;43.570;1.448;2023-06-22T01:00:30;5.43;;;2.50;;
14847;SDS011;7516;43.570;1.448;2023-06-22T01:02:58;4.75;;;2.60;;
14847;SDS011;7516;43.570;1.448;2023-06-22T01:05:25;6.63;;;3.20;;
14847;SDS011;7516;43.570;1.448;2023-06-22T01:07:58;3.10;;;2.55;;
14847;SDS011;7516;43.570;1.448;2023-06-22T01:10:31;3.92;;;2.50;;
14847;SDS011;7516;43.570;1.448;2023-06-22T01:13:01;4.57;;;2.65;;
14847;SDS011;7516;43.570;1.448;2023-06-22T01:15:30;4.20;;;2.50;;
14847;SDS011;7516;43.570;1.448;2023-06-22T01:17:58;6.10;;;2.28;;
14847;SDS011;7516;43.570;1.448;2023-06-22T01:20:26;4.30;;;2.08;;
14847;SDS011;7516;43.570;1.448;2023-06-22T01:22:59;3.33;;;1.80;;
14847;SDS011;7516;43.570;1.448;2023-06-22T01:25:33;6.57;;;1.90;;
14847;SDS011;7516;43.570;1.448;2023-06-22T01:28:03;3.58;;;1.67;;
14847;SDS011;7516;43.570;1.448;2023-06-22T01:30:33;2.78;;;1.73;;
14847;SDS011;7516;43.570;1.448;2023-06-22T01:33:00;3.50;;;1.77;;
14847;SDS011;7516;43.570;1.448;2023-06-22T01:35:28;4.05;;;1.50;;
14847;SDS011;7516;43.570;1.448;2023-06-22T01:37:56;2.65;;;1.50;;
14847;SDS011;7516;43.570;1.448;2023-06-22T01:40:23;2.58;;;1.60;;
14847;SDS011;7516;43.570;1.448;2023-06-22T01:42:51;2.88;;;1.30;;
14847;SDS011;7516;43.570;1.448;2023-06-22T01:45:19;1.85;;;1.27;;
14847;SDS011;7516;43.570;1.448;2023-06-22T01:47:48;5.70;;;1.73;;
14847;SDS011;7516;43.570;1.448;2023-06-22T01:50:15;3.75;;;1.10;;
14847;SDS011;7516;43.570;1.448;2023-06-22T01:52:42;4.25;;;1.30;;
14847;SDS011;7516;43.570;1.448;2023-06-22T01:55:10;3.63;;;1.10;;
14847;SDS011;7516;43.570;1.448;2023-06-22T01:57:38;4.07;;;1.85;;
14847;SDS011;7516;43.570;1.448;2023-06-22T02:00:07;5.68;;;2.15;;
14847;SDS011;7516;43.570;1.448;2023-06-22T02:02:37;6.05;;;4.22;;
14847;SDS011;7516;43.570;1.448;2023-06-22T02:05:08;8.23;;;2.90;;
14847;SDS011;7516;43.570;1.448;2023-06-22T02:07:38;3.88;;;2.63;;
14847;SDS011;7516;43.570;1.448;2023-06-22T02:10:08;7.97;;;4.05;;
14847;SDS011;7516;43.570;1.448;2023-06-22T02:12:38;6.80;;;4.32;;
14847;SDS011;7516;43.570;1.448;2023-06-22T02:15:06;10.20;;;5.50;;
14847;SDS011;7516;43.570;1.448;2023-06-22T02:17:34;11.23;;;5.95;;
14847;SDS011;7516;43.570;1.448;2023-06-22T02:20:02;9.52;;;5.30;;
14847;SDS011;7516;43.570;1.448;2023-06-22T02:22:32;5.10;;;2.45;;
14847;SDS011;7516;43.570;1.448;2023-06-22T02:24:59;4.22;;;1.40;;
14847;SDS011;7516;43.570;1.448;2023-06-22T02:27:26;5.10;;;1.33;;
14847;SDS011;7516;43.570;1.448;2023-06-22T02:29:54;4.13;;;1.30;;
14847;SDS011;7516;43.570;1.448;2023-06-22T02:32:21;3.65;;;1.52;;
14847;SDS011;7516;43.570;1.448;2023-06-22T02:34:48;3.42;;;1.98;;
14847;SDS011;7516;43.570;1.448;2023-06-22T02:37:16;4.82;;;1.00;;
14847;SDS011;7516;43.570;1.448;2023-06-22T02:39:45;3.63;;;0.93;;
14847;SDS011;7516;43.570;1.448;2023-06-22T02:42:13;1.95;;;0.90;;
14847;SDS011;7516;43.570;1.448;2023-06-22T02:44:40;1.65;;;1.02;;
14847;SDS011;7516;43.570;1.448;2023-06-22T02:47:07;1.67;;;1.20;;
14847;SDS011;7516;43.570;1.448;2023-06-22T02:49:35;6.05;;;1.20;;
14847;SDS011;7516;43.570;1.448;2023-06-22T02:52:02;2.10;;;1.08;;
14847;SDS011;7516;43.570;1.448;2023-06-22T02:54:29;10.75;;;1.52;;
14847;SDS011;7516;43.570;1.448;2023-06-22T02:56:59;2.70;;;1.40;;
14847;SDS011;7516;43.570;1.448;2023-06-22T02:59:27;3.30;;;1.15;;
14847;SDS011;7516;43.570;1.448;2023-06-22T03:01:55;2.47;;;1.20;;
14847;SDS011;7516;43.570;1.448;2023-06-22T03:04:22;5.28;;;1.20;;
14847;SDS011;7516;43.570;1.448;2023-06-22T03:06:49;3.10;;;1.40;;
14847;SDS011;7516;43.570;1.448;2023-06-22T03:09:17;3.90;;;1.30;;
14847;SDS011;7516;43.570;1.448;2023-06-22T03:11:44;3.20;;;1.65;;
14847;SDS011;7516;43.570;1.448;2023-06-22T03:14:13;4.75;;;1.70;;
14847;SDS011;7516;43.570;1.448;2023-06-22T03:16:40;2.88;;;1.80;;
14847;SDS011;7516;43.570;1.448;2023-06-22T03:19:07;4.65;;;1.33;;
14847;SDS011;7516;43.570;1.448;2023-06-22T03:21:35;4.20;;;1.98;;
14847;SDS011;7516;43.570;1.448;2023-06-22T03:24:02;3.25;;;1.80;;
14847;SDS011;7516;43.570;1.448;2023-06-22T03:26:29;7.47;;;2.05;;
14847;SDS011;7516;43.570;1.448;2023-06-22T03:28:57;3.03;;;1.70;;
14847;SDS011;7516;43.570;1.448;2023-06-22T03:31:25;4.22;;;2.10;;
14847;SDS011;7516;43.570;1.448;2023-06-22T03:33:53;4.25;;;1.73;;
14847;SDS011;7516;43.570;1.448;2023-06-22T03:36:21;6.53;;;1.67;;
14847;SDS011;7516;43.570;1.448;2023-06-22T03:38:48;6.22;;;1.90;;
14847;SDS011;7516;43.570;1.448;2023-06-22T03:41:16;7.50;;;1.75;;
14847;SDS011;7516;43.570;1.448;2023-06-22T03:43:43;4.82;;;1.90;;
14847;SDS011;7516;43.570;1.448;2023-06-22T03:46:11;5.78;;;2.03;;
14847;SDS011;7516;43.570;1.448;2023-06-22T03:48:39;5.97;;;1.98;;
14847;SDS011;7516;43.570;1.448;2023-06-22T03:51:07;6.28;;;1.90;;
14847;SDS011;7516;43.570;1.448;2023-06-22T03:53:34;5.90;;;2.08;;
14847;SDS011;7516;43.570;1.448;2023-06-22T03:56:02;3.70;;;2.10;;
14847;SDS011;7516;43.570;1.448;2023-06-22T03:58:29;4.00;;;2.38;;
14847;SDS011;7516;43.570;1.448;2023-06-22T04:00:58;6.25;;;2.33;;
14847;SDS011;7516;43.570;1.448;2023-06-22T04:03:26;5.50;;;2.55;;
14847;SDS011;7516;43.570;1.448;2023-06-22T04:05:54;4.93;;;2.20;;
14847;SDS011;7516;43.570;1.448;2023-06-22T04:08:22;3.83;;;2.08;;
14847;SDS011;7516;43.570;1.448;2023-06-22T04:10:49;5.03;;;2.40;;
14847;SDS011;7516;43.570;1.448;2023-06-22T04:13:16;6.25;;;2.40;;
14847;SDS011;7516;43.570;1.448;2023-06-22T04:15:43;11.40;;;2.88;;
14847;SDS011;7516;43.570;1.448;2023-06-22T04:18:11;5.30;;;3.00;;
14847;SDS011;7516;43.570;1.448;2023-06-22T04:20:38;5.32;;;2.72;;
14847;SDS011;7516;43.570;1.448;2023-06-22T04:23:07;5.10;;;2.90;;
14847;SDS011;7516;43.570;1.448;2023-06-22T04:25:34;5.60;;;3.00;;
14847;SDS011;7516;43.570;1.448;2023-06-22T04:28:01;7.15;;;2.72;;
14847;SDS011;7516;43.570;1.448;2023-06-22T04:30:29;5.07;;;3.28;;
14847;SDS011;7516;43.570;1.448;2023-06-22T04:32:57;6.20;;;2.85;;
14847;SDS011;7516;43.570;1.448;2023-06-22T04:35:25;3.72;;;2.80;;
14847;SDS011;7516;43.570;1.448;2023-06-22T04:37:53;7.53;;;2.75;;
14847;SDS011;7516;43.570;1.448;2023-06-22T04:40:22;5.22;;;2.90;;
14847;SDS011;7516;43.570;1.448;2023-06-22T04:42:50;6.50;;;2.92;;
14847;SDS011;7516;43.570;1.448;2023-06-22T04:45:20;6.00;;;2.60;;
14847;SDS011;7516;43.570;1.448;2023-06-22T04:47:47;4.70;;;3.00;;
14847;SDS011;7516;43.570;1.448;2023-06-22T04:50:15;5.68;;;2.90;;
14847;SDS011;7516;43.570;1.448;2023-06-22T04:52:42;9.13;;;2.85;;
14847;SDS011;7516;43.570;1.448;2023-06-22T04:55:10;6.78;;;3.03;;
14847;SDS011;7516;43.570;1.448;2023-06-22T04:57:39;9.13;;;3.10;;
14847;SDS011;7516;43.570;1.448;2023-06-22T05:00:10;5.80;;;3.78;;
14847;SDS011;7516;43.570;1.448;2023-06-22T05:02:38;10.02;;;4.10;;
14847;SDS011;7516;43.570;1.448;2023-06-22T05:05:05;7.78;;;3.78;;
14847;SDS011;7516;43.570;1.448;2023-06-22T05:07:33;6.57;;;3.92;;
14847;SDS011;7516;43.570;1.448;2023-06-22T05:10:00;8.25;;;4.07;;
14847;SDS011;7516;43.570;1.448;2023-06-22T05:12:27;6.00;;;4.00;;
14847;SDS011;7516;43.570;1.448;2023-06-22T05:14:56;6.75;;;4.68;;
14847;SDS011;7516;43.570;1.448;2023-06-22T05:17:24;7.60;;;3.80;;
14847;SDS011;7516;43.570;1.448;2023-06-22T05:19:51;4.30;;;3.90;;
14847;SDS011;7516;43.570;1.448;2023-06-22T05:22:18;6.30;;;4.50;;
14847;SDS011;7516;43.570;1.448;2023-06-22T05:24:46;6.20;;;4.63;;
14847;SDS011;7516;43.570;1.448;2023-06-22T05:27:14;6.95;;;4.18;;
14847;SDS011;7516;43.570;1.448;2023-06-22T05:29:42;6.38;;;4.38;;
14847;SDS011;7516;43.570;1.448;2023-06-22T05:32:10;6.03;;;4.30;;
14847;SDS011;7516;43.570;1.448;2023-06-22T05:34:38;10.70;;;4.30;;
14847;SDS011;7516;43.570;1.448;2023-06-22T05:37:05;6.93;;;4.38;;
14847;SDS011;7516;43.570;1.448;2023-06-22T05:39:34;5.30;;;4.30;;
14847;SDS011;7516;43.570;1.448;2023-06-22T05:42:04;6.35;;;5.07;;
14847;SDS011;7516;43.570;1.448;2023-06-22T05:44:31;9.55;;;4.90;;
14847;SDS011;7516;43.570;1.448;2023-06-22T05:46:59;6.93;;;4.70;;
14847;SDS011;7516;43.570;1.448;2023-06-22T05:49:29;5.72;;;4.97;;
14847;SDS011;7516;43.570;1.448;2023-06-22T05:51:57;7.90;;;4.65;;
14847;SDS011;7516;43.570;1.448;2023-06-22T05:54:26;8.82;;;5.63;;
14847;SDS011;7516;43.570;1.448;2023-06-22T05:56:54;7.38;;;5.63;;
14847;SDS011;7516;43.570;1.448;2023-06-22T05:59:21;7.53;;;5.43;;
14847;SDS011;7516;43.570;1.448;2023-06-22T06:01:48;8.43;;;4.88;;
14847;SDS011;7516;43.570;1.448;2023-06-22T06:04:16;6.25;;;4.63;;
14847;SDS011;7516;43.570;1.448;2023-06-22T06:06:45;8.38;;;5.30;;
14847;SDS011;7516;43.570;1.448;2023-06-22T06:09:13;8.15;;;4.95;;
14847;SDS011;7516;43.570;1.448;2023-06-22T06:11:40;9.68;;;6.40;;
14847;SDS011;7516;43.570;1.448;2023-06-22T06:14:08;9.63;;;5.18;;
14847;SDS011;7516;43.570;1.448;2023-06-22T06:16:35;8.02;;;5.65;;
14847;SDS011;7516;43.570;1.448;2023-06-22T06:19:02;8.27;;;5.78;;
14847;SDS011;7516;43.570;1.448;2023-06-22T06:21:29;7.63;;;5.38;;
14847;SDS011;7516;43.570;1.448;2023-06-22T06:23:58;8.35;;;5.30;;
14847;SDS011;7516;43.570;1.448;2023-06-22T06:26:25;7.53;;;4.47;;
14847;SDS011;7516;43.570;1.448;2023-06-22T06:28:55;8.95;;;5.60;;
14847;SDS011;7516;43.570;1.448;2023-06-22T06:31:22;13.68;;;5.13;;
14847;SDS011;7516;43.570;1.448;2023-06-22T06:33:49;8.68;;;5.07;;
14847;SDS011;7516;43.570;1.448;2023-06-22T06:36:17;9.82;;;5.50;;
14847;SDS011;7516;43.570;1.448;2023-06-22T06:38:44;8.73;;;4.72;;
14847;SDS011;7516;43.570;1.448;2023-06-22T06:41:14;8.63;;;4.72;;
14847;SDS011;7516;43.570;1.448;2023-06-22T06:43:41;5.85;;;4.72;;
14847;SDS011;7516;43.570;1.448;2023-06-22T06:46:08;7.47;;;4.93;;
14847;SDS011;7516;43.570;1.448;2023-06-22T06:48:36;9.10;;;5.05;;
14847;SDS011;7516;43.570;1.448;2023-06-22T06:51:03;9.52;;;4.63;;
14847;SDS011;7516;43.570;1.448;2023-06-22T06:53:30;10.30;;;4.90;;
14847;SDS011;7516;43.570;1.448;2023-06-22T06:55:57;9.00;;;5.07;;
14847;SDS011;7516;43.570;1.448;2023-06-22T06:58:27;6.63;;;5.05;;
14847;SDS011;7516;43.570;1.448;2023-06-22T07:00:54;7.60;;;4.80;;
14847;SDS011;7516;43.570;1.448;2023-06-22T07:03:21;9.98;;;5.00;;
14847;SDS011;7516;43.570;1.448;2023-06-22T07:05:49;7.80;;;4.68;;
14847;SDS011;7516;43.570;1.448;2023-06-22T07:08:16;8.13;;;4.63;;
14847;SDS011;7516;43.570;1.448;2023-06-22T07:10:43;5.25;;;4.60;;
14847;SDS011;7516;43.570;1.448;2023-06-22T07:13:10;5.38;;;3.95;;
14847;SDS011;7516;43.570;1.448;2023-06-22T07:15:39;5.65;;;3.90;;
14847;SDS011;7516;43.570;1.448;2023-06-22T07:18:07;6.13;;;3.92;;
14847;SDS011;7516;43.570;1.448;2023-06-22T07:20:34;5.30;;;3.97;;
14847;SDS011;7516;43.570;1.448;2023-06-22T07:23:01;8.32;;;3.83;;
14847;SDS011;7516;43.570;1.448;2023-06-22T07:25:29;6.20;;;3.83;;
14847;SDS011;7516;43.570;1.448;2023-06-22T07:27:57;4.47;;;3.50;;
14847;SDS011;7516;43.570;1.448;2023-06-22T07:30:25;9.85;;;3.70;;
14847;SDS011;7516;43.570;1.448;2023-06-22T07:32:54;6.18;;;3.67;;
14847;SDS011;7516;43.570;1.448;2023-06-22T07:35:22;4.55;;;3.55;;
14847;SDS011;7516;43.570;1.448;2023-06-22T07:37:49;6.28;;;3.10;;
14847;SDS011;7516;43.570;1.448;2023-06-22T07:40:16;4.30;;;3.20;;
14847;SDS011;7516;43.570;1.448;2023-06-22T07:42:43;4.28;;;3.05;;
14847;SDS011;7516;43.570;1.448;2023-06-22T07:45:13;5.28;;;2.80;;
14847;SDS011;7516;43.570;1.448;2023-06-22T07:47:40;5.45;;;2.80;;
14847;SDS011;7516;43.570;1.448;2023-06-22T07:50:09;4.05;;;2.90;;
14847;SDS011;7516;43.570;1.448;2023-06-22T07:52:37;3.80;;;2.53;;
14847;SDS011;7516;43.570;1.448;2023-06-22T07:55:04;4.80;;;2.47;;
14847;SDS011;7516;43.570;1.448;2023-06-22T07:57:31;4.22;;;2.38;;
14847;SDS011;7516;43.570;1.448;2023-06-22T07:59:59;4.38;;;3.03;;
14847;SDS011;7516;43.570;1.448;2023-06-22T08:02:29;3.20;;;2.50;;
14847;SDS011;7516;43.570;1.448;2023-06-22T08:04:56;2.67;;;2.35;;
14847;SDS011;7516;43.570;1.448;2023-06-22T08:07:25;3.88;;;2.30;;
14847;SDS011;7516;43.570;1.448;2023-06-22T08:09:53;3.33;;;2.53;;
14847;SDS011;7516;43.570;1.448;2023-06-22T08:12:20;2.95;;;2.58;;
14847;SDS011;7516;43.570;1.448;2023-06-22T08:14:47;3.65;;;2.58;;
14847;SDS011;7516;43.570;1.448;2023-06-22T08:17:15;3.47;;;2.90;;
14847;SDS011;7516;43.570;1.448;2023-06-22T08:19:42;2.95;;;2.65;;
14847;SDS011;7516;43.570;1.448;2023-06-22T08:22:09;2.72;;;2.47;;
14847;SDS011;7516;43.570;1.448;2023-06-22T08:24:38;3.72;;;3.00;;
14847;SDS011;7516;43.570;1.448;2023-06-22T08:27:06;5.85;;;3.00;;
14847;SDS011;7516;43.570;1.448;2023-06-22T08:29:34;5.32;;;3.20;;
14847;SDS011;7516;43.570;1.448;2023-06-22T08:32:02;3.22;;;2.60;;
14847;SDS011;7516;43.570;1.448;2023-06-22T08:34:29;3.83;;;3.08;;
14847;SDS011;7516;43.570;1.448;2023-06-22T08:36:56;5.35;;;3.28;;
14847;SDS011;7516;43.570;1.448;2023-06-22T08:39:24;5.38;;;3.58;;
14847;SDS011;7516;43.570;1.448;2023-06-22T08:41:54;4.68;;;3.83;;
14847;SDS011;7516;43.570;1.448;2023-06-22T08:44:21;3.42;;;3.00;;
14847;SDS011;7516;43.570;1.448;2023-06-22T08:46:48;4.53;;;2.95;;
14847;SDS011;7516;43.570;1.448;2023-06-22T08:49:15;4.88;;;3.10;;
14847;SDS011;7516;43.570;1.448;2023-06-22T08:51:43;3.50;;;3.10;;
14847;SDS011;7516;43.570;1.448;2023-06-22T08:54:12;3.05;;;2.75;;
14847;SDS011;7516;43.570;1.448;2023-06-22T08:56:40;4.78;;;2.85;;
14847;SDS011;7516;43.570;1.448;2023-06-22T08:59:10;3.08;;;2.45;;
14847;SDS011;7516;43.570;1.448;2023-06-22T09:01:37;4.35;;;2.80;;
14847;SDS011;7516;43.570;1.448;2023-06-22T09:04:04;3.80;;;3.10;;
14847;SDS011;7516;43.570;1.448;2023-06-22T09:06:34;3.95;;;3.25;;
14847;SDS011;7516;43.570;1.448;2023-06-22T09:09:06;5.28;;;3.15;;
14847;SDS011;7516;43.570;1.448;2023-06-22T09:11:33;6.00;;;3.20;;
14847;SDS011;7516;43.570;1.448;2023-06-22T09:14:01;3.35;;;2.85;;
14847;SDS011;7516;43.570;1.448;2023-06-22T09:16:30;3.53;;;3.00;;
14847;SDS011;7516;43.570;1.448;2023-06-22T09:18:57;5.13;;;2.75;;
14847;SDS011;7516;43.570;1.448;2023-06-22T09:21:24;4.80;;;2.78;;
14847;SDS011;7516;43.570;1.448;2023-06-22T09:23:52;3.30;;;2.75;;
14847;SDS011;7516;43.570;1.448;2023-06-22T09:26:19;3.92;;;3.25;;
14847;SDS011;7516;43.570;1.448;2023-06-22T09:28:47;3.78;;;2.95;;
14847;SDS011;7516;43.570;1.448;2023-06-22T09:31:14;4.53;;;2.88;;
14847;SDS011;7516;43.570;1.448;2023-06-22T09:33:43;4.57;;;2.90;;
14847;SDS011;7516;43.570;1.448;2023-06-22T09:36:12;3.67;;;2.90;;
14847;SDS011;7516;43.570;1.448;2023-06-22T09:38:39;4.35;;;3.70;;
14847;SDS011;7516;43.570;1.448;2023-06-22T09:41:06;5.65;;;2.85;;
14847;SDS011;7516;43.570;1.448;2023-06-22T09:43:34;5.55;;;3.20;;
14847;SDS011;7516;43.570;1.448;2023-06-22T09:46:01;4.22;;;3.20;;
14847;SDS011;7516;43.570;1.448;2023-06-22T09:48:30;5.05;;;2.65;;
14847;SDS011;7516;43.570;1.448;2023-06-22T09:50:58;4.53;;;2.90;;
14847;SDS011;7516;43.570;1.448;2023-06-22T09:53:25;5.05;;;3.15;;
14847;SDS011;7516;43.570;1.448;2023-06-22T09:55:53;4.70;;;3.00;;
14847;SDS011;7516;43.570;1.448;2023-06-22T09:58:20;3.10;;;2.70;;
14847;SDS011;7516;43.570;1.448;2023-06-22T10:00:48;4.18;;;2.80;;
14847;SDS011;7516;43.570;1.448;2023-06-22T10:03:15;4.60;;;3.33;;
14847;SDS011;7516;43.570;1.448;2023-06-22T10:05:42;5.45;;;3.45;;
14847;SDS011;7516;43.570;1.448;2023-06-22T10:08:11;3.88;;;3.17;;
14847;SDS011;7516;43.570;1.448;2023-06-22T10:10:38;5.38;;;3.10;;
14847;SDS011;7516;43.570;1.448;2023-06-22T10:13:07;4.18;;;3.40;;
14847;SDS011;7516;43.570;1.448;2023-06-22T10:15:36;5.05;;;3.20;;
14847;SDS011;7516;43.570;1.448;2023-06-22T10:18:03;5.18;;;3.17;;
14847;SDS011;7516;43.570;1.448;2023-06-22T10:20:30;5.50;;;2.90;;
14847;SDS011;7516;43.570;1.448;2023-06-22T10:22:58;4.47;;;3.47;;
14847;SDS011;7516;43.570;1.448;2023-06-22T10:25:27;5.00;;;3.83;;
14847;SDS011;7516;43.570;1.448;2023-06-22T10:27:54;3.92;;;3.10;;
14847;SDS011;7516;43.570;1.448;2023-06-22T10:30:21;5.10;;;3.28;;
14847;SDS011;7516;43.570;1.448;2023-06-22T10:32:49;3.65;;;3.17;;
14847;SDS011;7516;43.570;1.448;2023-06-22T10:35:16;6.20;;;3.30;;
14847;SDS011;7516;43.570;1.448;2023-06-22T10:37:43;3.80;;;3.40;;
14847;SDS011;7516;43.570;1.448;2023-06-22T10:40:11;4.45;;;3.20;;
14847;SDS011;7516;43.570;1.448;2023-06-22T10:42:41;3.80;;;3.30;;
14847;SDS011;7516;43.570;1.448;2023-06-22T10:45:09;3.85;;;3.45;;
14847;SDS011;7516;43.570;1.448;2023-06-22T10:47:36;4.22;;;3.25;;
14847;SDS011;7516;43.570;1.448;2023-06-22T10:50:04;3.50;;;3.20;;
14847;SDS011;7516;43.570;1.448;2023-06-22T10:52:31;4.47;;;3.30;;
14847;SDS011;7516;43.570;1.448;2023-06-22T10:54:58;4.50;;;3.17;;
14847;SDS011;7516;43.570;1.448;2023-06-22T10:57:26;3.58;;;3.00;;
14847;SDS011;7516;43.570;1.448;2023-06-22T10:59:54;4.72;;;3.42;;
14847;SDS011;7516;43.570;1.448;2023-06-22T11:02:22;3.75;;;3.10;;
14847;SDS011;7516;43.570;1.448;2023-06-22T11:04:49;4.90;;;3.40;;
14847;SDS011;7516;43.570;1.448;2023-06-22T11:07:16;4.00;;;3.38;;
14847;SDS011;7516;43.570;1.448;2023-06-22T11:09:43;3.97;;;3.08;;
14847;SDS011;7516;43.570;1.448;2023-06-22T11:12:11;4.70;;;3.50;;
14847;SDS011;7516;43.570;1.448;2023-06-22T11:14:38;4.35;;;3.60;;
14847;SDS011;7516;43.570;1.448;2023-06-22T11:17:07;4.43;;;3.03;;
14847;SDS011;7516;43.570;1.448;2023-06-22T11:19:34;3.55;;;3.22;;
14847;SDS011;7516;43.570;1.448;2023-06-22T11:22:01;3.83;;;3.30;;
14847;SDS011;7516;43.570;1.448;2023-06-22T11:24:28;3.97;;;3.50;;
14847;SDS011;7516;43.570;1.448;2023-06-22T11:26:56;5.13;;;3.55;;
14847;SDS011;7516;43.570;1.448;2023-06-22T11:29:23;4.07;;;3.28;;
14847;SDS011;7516;43.570;1.448;2023-06-22T11:31:50;3.95;;;3.38;;
14847;SDS011;7516;43.570;1.448;2023-06-22T11:34:19;4.05;;;3.53;;
14847;SDS011;7516;43.570;1.448;2023-06-22T11:36:46;4.15;;;3.60;;
14847;SDS011;7516;43.570;1.448;2023-06-22T11:39:13;5.97;;;3.67;;
14847;SDS011;7516;43.570;1.448;2023-06-22T11:41:41;4.85;;;3.90;;
14847;SDS011;7516;43.570;1.448;2023-06-22T11:44:09;4.57;;;3.60;;
14847;SDS011;7516;43.570;1.448;2023-06-22T11:46:36;3.67;;;3.38;;
14847;SDS011;7516;43.570;1.448;2023-06-22T11:49:03;4.05;;;3.30;;
14847;SDS011;7516;43.570;1.448;2023-06-22T11:51:32;4.63;;;3.60;;
14847;SDS011;7516;43.570;1.448;2023-06-22T11:53:59;4.93;;;3.10;;
14847;SDS011;7516;43.570;1.448;2023-06-22T11:56:27;4.90;;;3.67;;
14847;SDS011;7516;43.570;1.448;2023-06-22T11:58:54;7.75;;;2.97;;
14847;SDS011;7516;43.570;1.448;2023-06-22T12:01:21;4.05;;;3.30;;
14847;SDS011;7516;43.570;1.448;2023-06-22T12:03:49;3.80;;;3.40;;
14847;SDS011;7516;43.570;1.448;2023-06-22T12:06:16;4.75;;;3.38;;
14847;SDS011;7516;43.570;1.448;2023-06-22T12:08:44;4.72;;;3.10;;
14847;SDS011;7516;43.570;1.448;2023-06-22T12:11:12;6.72;;;3.60;;
14847;SDS011;7516;43.570;1.448;2023-06-22T12:13:39;3.72;;;3.25;;
14847;SDS011;7516;43.570;1.448;2023-06-22T12:16:06;4.38;;;3.30;;
14847;SDS011;7516;43.570;1.448;2023-06-22T12:18:33;3.67;;;2.92;;
14847;SDS011;7516;43.570;1.448;2023-06-22T12:21:01;3.45;;;3.00;;
14847;SDS011;7516;43.570;1.448;2023-06-22T12:23:28;3.40;;;2.67;;
14847;SDS011;7516;43.570;1.448;2023-06-22T12:25:56;3.05;;;2.67;;
14847;SDS011;7516;43.570;1.448;2023-06-22T12:28:25;2.90;;;2.63;;
14847;SDS011;7516;43.570;1.448;2023-06-22T12:30:52;5.68;;;3.00;;
14847;SDS011;7516;43.570;1.448;2023-06-22T12:33:19;2.67;;;2.47;;
14847;SDS011;7516;43.570;1.448;2023-06-22T12:35:46;4.18;;;2.85;;
14847;SDS011;7516;43.570;1.448;2023-06-22T12:38:15;3.13;;;2.30;;
14847;SDS011;7516;43.570;1.448;2023-06-22T12:40:42;3.22;;;2.50;;
14847;SDS011;7516;43.570;1.448;2023-06-22T12:43:10;2.40;;;2.20;;
14847;SDS011;7516;43.570;1.448;2023-06-22T12:45:38;4.15;;;2.60;;
14847;SDS011;7516;43.570;1.448;2023-06-22T12:48:05;3.35;;;2.33;;
14847;SDS011;7516;43.570;1.448;2023-06-22T12:50:33;2.85;;;2.33;;
14847;SDS011;7516;43.570;1.448;2023-06-22T12:53:00;2.78;;;2.40;;
14847;SDS011;7516;43.570;1.448;2023-06-22T12:55:29;3.72;;;2.17;;
14847;SDS011;7516;43.570;1.448;2023-06-22T12:57:56;4.13;;;2.60;;
14847;SDS011;7516;43.570;1.448;2023-06-22T13:00:25;3.05;;;2.75;;
14847;SDS011;7516;43.570;1.448;2023-06-22T13:02:52;3.00;;;2.67;;
14847;SDS011;7516;43.570;1.448;2023-06-22T13:05:19;2.90;;;2.45;;
14847;SDS011;7516;43.570;1.448;2023-06-22T13:07:47;3.15;;;2.60;;
14847;SDS011;7516;43.570;1.448;2023-06-22T13:10:14;3.30;;;2.53;;
14847;SDS011;7516;43.570;1.448;2023-06-22T13:12:41;4.05;;;2.50;;
14847;SDS011;7516;43.570;1.448;2023-06-22T13:15:08;3.63;;;2.70;;
14847;SDS011;7516;43.570;1.448;2023-06-22T13:17:37;3.13;;;2.60;;
14847;SDS011;7516;43.570;1.448;2023-06-22T13:20:05;3.70;;;2.60;;
14847;SDS011;7516;43.570;1.448;2023-06-22T13:22:32;3.85;;;2.75;;
14847;SDS011;7516;43.570;1.448;2023-06-22T13:25:05;3.53;;;2.67;;
14847;SDS011;7516;43.570;1.448;2023-06-22T13:27:32;3.17;;;2.88;;
14847;SDS011;7516;43.570;1.448;2023-06-22T13:30:00;3.42;;;2.35;;
14847;SDS011;7516;43.570;1.448;2023-06-22T13:32:27;4.32;;;2.88;;
14847;SDS011;7516;43.570;1.448;2023-06-22T13:34:56;2.97;;;2.67;;
14847;SDS011;7516;43.570;1.448;2023-06-22T13:37:23;2.83;;;2.40;;
14847;SDS011;7516;43.570;1.448;2023-06-22T13:39:51;4.43;;;2.80;;
14847;SDS011;7516;43.570;1.448;2023-06-22T13:42:18;3.08;;;2.60;;
14847;SDS011;7516;43.570;1.448;2023-06-22T13:44:45;3.88;;;2.90;;
14847;SDS011;7516;43.570;1.448;2023-06-22T13:47:12;3.00;;;2.65;;
14847;SDS011;7516;43.570;1.448;2023-06-22T13:49:40;4.45;;;3.00;;
14847;SDS011;7516;43.570;1.448;2023-06-22T13:52:08;3.58;;;2.50;;
14847;SDS011;7516;43.570;1.448;2023-06-22T13:54:37;5.68;;;2.65;;
14847;SDS011;7516;43.570;1.448;2023-06-22T13:57:05;4.97;;;3.00;;
14847;SDS011;7516;43.570;1.448;2023-06-22T13:59:32;3.72;;;3.30;;
14847;SDS011;7516;43.570;1.448;2023-06-22T14:01:59;3.78;;;3.33;;
14847;SDS011;7516;43.570;1.448;2023-06-22T14:04:27;3.75;;;3.35;;
14847;SDS011;7516;43.570;1.448;2023-06-22T14:06:54;3.90;;;3.05;;
14847;SDS011;7516;43.570;1.448;2023-06-22T14:09:23;5.00;;;3.35;;
14847;SDS011;7516;43.570;1.448;2023-06-22T14:11:50;3.90;;;3.38;;
14847;SDS011;7516;43.570;1.448;2023-06-22T14:14:18;4.10;;;2.90;;
14847;SDS011;7516;43.570;1.448;2023-06-22T14:16:45;4.43;;;3.45;;
14847;SDS011;7516;43.570;1.448;2023-06-22T14:19:14;5.20;;;3.70;;
14847;SDS011;7516;43.570;1.448;2023-06-22T14:21:41;3.95;;;3.40;;
14847;SDS011;7516;43.570;1.448;2023-06-22T14:24:09;4.53;;;3.63;;
14847;SDS011;7516;43.570;1.448;2023-06-22T14:26:37;5.20;;;3.80;;
14847;SDS011;7516;43.570;1.448;2023-06-22T14:29:05;4.97;;;3.53;;
14847;SDS011;7516;43.570;1.448;2023-06-22T14:31:32;5.47;;;3.33;;
14847;SDS011;7516;43.570;1.448;2023-06-22T14:33:59;5.28;;;3.92;;
14847;SDS011;7516;43.570;1.448;2023-06-22T14:36:27;5.20;;;3.95;;
14847;SDS011;7516;43.570;1.448;2023-06-22T14:38:54;6.65;;;3.40;;
14847;SDS011;7516;43.570;1.448;2023-06-22T14:41:22;5.82;;;3.60;;
14847;SDS011;7516;43.570;1.448;2023-06-22T14:43:50;4.65;;;3.42;;
14847;SDS011;7516;43.570;1.448;2023-06-22T14:46:18;5.03;;;4.07;;
14847;SDS011;7516;43.570;1.448;2023-06-22T14:48:46;6.90;;;3.90;;
14847;SDS011;7516;43.570;1.448;2023-06-22T14:51:13;6.32;;;3.58;;
14847;SDS011;7516;43.570;1.448;2023-06-22T14:53:41;4.95;;;3.28;;
14847;SDS011;7516;43.570;1.448;2023-06-22T14:56:08;5.70;;;3.50;;
14847;SDS011;7516;43.570;1.448;2023-06-22T14:58:36;6.45;;;3.50;;
14847;SDS011;7516;43.570;1.448;2023-06-22T15:01:04;4.45;;;3.75;;
14847;SDS011;7516;43.570;1.448;2023-06-22T15:03:33;4.43;;;3.53;;